Time;durP1;ratioP1;P1;durP2;ratioP2;P2;SDS_P1;SDS_P2;PMS_P1;PMS_P2;Temp;Humidity;BMP_temperature;BMP_pressure;BME280_temperature;BME280_humidity;BME280_pressure;Samples;Min_cycle;Max_cycle;Signal;HPM_P1;HPM_P2
2021/04/28 00:00:42;;;;;;;2.33;1.08;;;;;;;4.58;59.20;98177.53;1980748;79;21814;-76
2021/04/28 00:03:44;;;;;;;1.17;1.08;;;;;;;4.49;59.38;98180.13;1981205;81;20325;-76
2021/04/28 00:06:45;;;;;;;1.33;0.94;;;;;;;4.45;59.55;98179.22;1980848;81;20358;-75
2021/04/28 00:09:47;;;;;;;1.48;1.00;;;;;;;4.43;59.73;98177.53;1981050;81;20344;-75
2021/04/28 00:12:49;;;;;;;1.50;1.05;;;;;;;4.38;60.01;98171.53;1980999;81;20316;-75
2021/04/28 00:15:51;;;;;;;1.89;1.39;;;;;;;4.30;60.08;98173.22;1979960;79;21348;-75
2021/04/28 00:18:53;;;;;;;2.44;1.00;;;;;;;4.28;60.36;98165.50;1980641;81;20321;-75
2021/04/28 00:21:55;;;;;;;2.08;1.10;;;;;;;4.21;60.53;98162.09;1980924;81;20346;-75
2021/04/28 00:24:57;;;;;;;1.10;1.00;;;;;;;4.17;60.55;98155.25;1981645;81;20309;-75
2021/04/28 00:27:59;;;;;;;1.21;0.85;;;;;;;4.13;60.66;98158.69;1980943;81;20338;-75
2021/04/28 00:31:02;;;;;;;1.55;0.77;;;;;;;4.05;60.99;98151.81;1980484;79;21014;-74
2021/04/28 00:34:04;;;;;;;2.80;1.14;;;;;;;4.02;60.91;98155.22;1985782;81;20342;-75
2021/04/28 00:37:05;;;;;;;1.10;0.96;;;;;;;3.95;61.25;98158.66;1991265;81;20340;-75
2021/04/28 00:40:16;;;;;;;1.76;1.17;;;;;;;3.90;61.41;98152.63;1991020;81;20751;-76
2021/04/28 00:43:18;;;;;;;3.96;1.00;;;;;;;3.92;61.21;98146.63;1991478;81;20372;-74
2021/04/28 00:46:20;;;;;;;1.54;1.00;;;;;;;3.86;61.67;98153.47;1990173;78;22637;-75
2021/04/28 00:49:21;;;;;;;1.11;0.96;;;;;;;3.74;62.47;98151.72;1990648;81;20460;-74
2021/04/28 00:52:23;;;;;;;4.34;1.55;;;;;;;3.71;62.73;98150.88;1991230;81;20335;-75
2021/04/28 00:55:25;;;;;;;2.94;1.25;;;;;;;3.69;63.05;98143.16;1991265;81;20310;-74
2021/04/28 00:58:28;;;;;;;4.21;1.14;;;;;;;3.64;63.08;98145.72;1991443;81;20344;-75
2021/04/28 01:01:30;;;;;;;3.15;1.15;;;;;;;3.58;63.29;98134.56;1989516;78;22335;-75
2021/04/28 01:04:31;;;;;;;1.75;1.08;;;;;;;3.57;63.21;98138.00;1991635;81;20340;-75
2021/04/28 01:07:33;;;;;;;1.41;1.00;;;;;;;3.53;63.05;98136.28;1991112;81;20307;-75
2021/04/28 01:10:36;;;;;;;1.46;1.09;;;;;;;3.48;62.74;98135.41;1991158;81;20327;-74
2021/04/28 01:13:38;;;;;;;1.38;0.93;;;;;;;3.47;62.65;98139.69;1991556;81;20804;-75
2021/04/28 01:16:40;;;;;;;4.55;1.06;;;;;;;3.46;62.82;98140.53;1989818;79;24792;-75
2021/04/28 01:19:42;;;;;;;1.91;1.13;;;;;;;3.39;63.16;98138.78;1991172;81;20375;-74
2021/04/28 01:22:46;;;;;;;1.74;1.06;;;;;;;3.27;63.63;98138.75;1990580;81;20374;-74
2021/04/28 01:25:50;;;;;;;1.35;0.85;;;;;;;3.20;63.85;98142.13;1991365;81;20386;-75
2021/04/28 01:28:53;;;;;;;1.27;0.85;;;;;;;3.14;64.04;98139.53;1990829;81;20356;-74
2021/04/28 01:31:57;;;;;;;2.53;1.30;;;;;;;3.10;64.07;98135.25;1990682;79;20892;-75
2021/04/28 01:35:00;;;;;;;2.13;1.24;;;;;;;3.10;64.10;98136.09;1990910;81;20902;-74
2021/04/28 01:38:04;;;;;;;1.89;1.10;;;;;;;3.10;64.21;98132.69;1991229;81;20424;-75
2021/04/28 01:41:07;;;;;;;1.56;1.10;;;;;;;3.06;64.42;98133.53;1991576;81;20756;-74
2021/04/28 01:44:12;;;;;;;1.76;1.00;;;;;;;2.98;64.31;98131.75;1990812;81;20352;-74
2021/04/28 01:47:15;;;;;;;1.79;1.27;;;;;;;2.90;64.24;98138.56;1989553;79;20726;-74
2021/04/28 01:50:20;;;;;;;2.21;1.30;;;;;;;2.92;64.30;98131.75;1990997;81;20328;-75
2021/04/28 01:53:23;;;;;;;2.36;1.26;;;;;;;2.94;64.80;98132.59;1991123;81;20368;-75
2021/04/28 01:56:26;;;;;;;2.44;1.00;;;;;;;2.94;64.37;98126.63;1991071;81;20322;-74
2021/04/28 01:59:29;;;;;;;2.54;1.23;;;;;;;2.92;64.50;98126.63;1991434;81;20303;-74
2021/04/28 02:02:31;;;;;;;1.63;1.39;;;;;;;2.91;64.30;98135.16;1990600;79;21943;-75
2021/04/28 02:05:34;;;;;;;2.06;1.08;;;;;;;2.81;64.56;98128.25;1992216;81;20409;-74
2021/04/28 02:08:36;;;;;;;3.30;1.41;;;;;;;2.77;64.66;98129.09;1991821;81;20344;-75
2021/04/28 02:11:37;;;;;;;2.75;1.20;;;;;;;2.77;64.75;98136.78;1992291;81;20863;-75
2021/04/28 02:14:41;;;;;;;4.13;1.08;;;;;;;2.73;64.89;98128.22;1992646;81;20340;-74
2021/04/28 02:17:45;;;;;;;1.56;0.99;;;;;;;2.68;64.98;98122.19;1991068;78;22594;-75
2021/04/28 02:20:47;;;;;;;1.60;1.15;;;;;;;2.61;65.05;98129.84;1993144;81;20344;-75
2021/04/28 02:23:50;;;;;;;1.89;1.14;;;;;;;2.49;65.34;98128.03;1992732;81;20352;-74
2021/04/28 02:26:57;;;;;;;3.51;1.30;;;;;;;2.42;65.55;98126.28;1992509;81;20335;-75
2021/04/28 02:30:03;;;;;;;2.81;1.28;;;;;;;2.39;65.62;98119.44;1992819;81;20314;-75
2021/04/28 02:33:04;;;;;;;2.10;0.90;;;;;;;2.38;65.50;98115.16;1986749;79;21874;-75
2021/04/28 02:36:07;;;;;;;3.97;1.04;;;;;;;2.35;65.73;98122.84;1987025;81;20319;-75
2021/04/28 02:39:16;;;;;;;2.45;0.95;;;;;;;2.32;65.77;98117.66;1987229;81;20316;-75
2021/04/28 02:42:19;;;;;;;1.26;1.11;;;;;;;2.28;65.78;98123.63;1987976;81;20351;-75
2021/04/28 02:45:22;;;;;;;1.75;0.95;;;;;;;2.28;65.68;98123.63;1991257;79;24695;-75
2021/04/28 02:48:26;;;;;;;2.80;0.94;;;;;;;2.22;65.53;98117.59;1993015;81;20802;-75
2021/04/28 02:51:29;;;;;;;1.46;0.85;;;;;;;2.20;65.49;98121.84;1993422;81;20351;-75
2021/04/28 02:54:31;;;;;;;1.24;0.80;;;;;;;2.12;65.70;98127.75;1992649;81;20423;-75
2021/04/28 02:57:34;;;;;;;1.31;0.90;;;;;;;2.05;65.84;98123.44;1992730;81;20838;-75
2021/04/28 03:00:35;;;;;;;0.85;0.82;;;;;;;1.99;66.17;98125.09;1991943;81;26921;-74
2021/04/28 03:03:41;;;;;;;2.00;0.82;;;;;;;1.94;66.22;98122.47;1992358;81;20380;-75
2021/04/28 03:06:44;;;;;;;3.60;1.04;;;;;;;1.89;66.81;98116.44;1992974;81;20365;-75
2021/04/28 03:09:46;;;;;;;1.39;0.91;;;;;;;1.84;67.03;98110.44;1991504;81;20307;-74
2021/04/28 03:12:48;;;;;;;1.76;0.85;;;;;;;1.78;66.96;98124.00;1991185;81;20318;-74
2021/04/28 03:15:49;;;;;;;1.30;0.95;;;;;;;1.75;67.03;98126.56;1991388;78;20721;-75
2021/04/28 03:18:52;;;;;;;1.84;1.00;;;;;;;1.70;67.52;98114.56;1992529;81;20855;-74
2021/04/28 03:21:53;;;;;;;1.60;1.09;;;;;;;1.64;67.70;98114.50;1991625;81;20351;-74
2021/04/28 03:24:55;;;;;;;1.04;0.93;;;;;;;1.59;67.52;98117.00;1991753;81;20431;-75
2021/04/28 03:27:58;;;;;;;1.59;1.10;;;;;;;1.55;67.64;98122.06;1991832;81;20322;-74
2021/04/28 03:31:00;;;;;;;1.14;1.00;;;;;;;1.55;67.91;98124.63;1990944;79;21384;-75
2021/04/28 03:34:02;;;;;;;4.55;1.16;;;;;;;1.55;67.81;98117.81;1991610;81;20897;-75
2021/04/28 03:37:05;;;;;;;1.21;0.99;;;;;;;1.58;67.52;98122.97;1991263;81;20336;-75
2021/04/28 03:40:07;;;;;;;2.66;1.20;;;;;;;1.57;67.66;98122.94;1992114;81;20486;-74
2021/04/28 03:43:09;;;;;;;1.92;1.20;;;;;;;1.52;67.88;98128.88;1991172;81;20356;-74
2021/04/28 03:46:12;;;;;;;1.35;1.25;;;;;;;1.47;67.99;98130.53;1990399;79;53242;-75
2021/04/28 03:49:15;;;;;;;5.85;1.17;;;;;;;1.39;68.33;98133.81;1990956;81;20550;-75
2021/04/28 03:52:17;;;;;;;1.58;1.08;;;;;;;1.36;68.57;98132.09;1991619;81;20713;-75
2021/04/28 03:55:19;;;;;;;1.31;1.10;;;;;;;1.35;68.58;98127.81;1991573;81;20828;-74
2021/04/28 03:58:20;;;;;;;1.89;1.33;;;;;;;1.35;68.77;98142.31;1991372;81;20707;-75
2021/04/28 04:01:22;;;;;;;2.91;1.30;;;;;;;1.30;68.94;98146.53;1990612;79;22854;-75
2021/04/28 04:04:24;;;;;;;1.84;1.30;;;;;;;1.29;68.73;98140.56;1991139;81;20352;-75
2021/04/28 04:07:26;;;;;;;1.59;1.15;;;;;;;1.28;68.74;98143.09;1992105;81;20355;-75
2021/04/28 04:10:28;;;;;;;3.92;1.38;;;;;;;1.28;69.05;98145.66;1991326;81;20348;-75
2021/04/28 04:13:30;;;;;;;4.45;1.25;;;;;;;1.26;68.84;98144.75;1992021;81;20459;-74
2021/04/28 04:16:32;;;;;;;2.16;1.11;;;;;;;1.27;68.93;98141.38;1990244;81;20602;-74
2021/04/28 04:19:34;;;;;;;4.18;1.39;;;;;;;1.25;69.13;98138.78;1991503;81;20311;-75
2021/04/28 04:22:35;;;;;;;2.29;1.40;;;;;;;1.24;69.15;98141.31;1991513;81;20322;-76
2021/04/28 04:25:37;;;;;;;4.82;1.10;;;;;;;1.18;69.19;98142.97;1991241;81;20343;-75
2021/04/28 04:28:39;;;;;;;9.66;1.30;;;;;;;1.17;69.30;98150.63;1991548;81;20846;-75
2021/04/28 04:31:40;;;;;;;2.45;1.01;;;;;;;1.14;69.63;98153.13;1990404;79;21143;-74
2021/04/28 04:34:42;;;;;;;2.92;1.17;;;;;;;1.05;70.30;98148.75;1991255;81;20479;-74
2021/04/28 04:37:44;;;;;;;5.88;1.02;;;;;;;0.97;70.85;98146.94;1991569;81;20326;-74
2021/04/28 04:40:48;;;;;;;1.48;1.35;;;;;;;0.99;70.86;98150.38;1991041;81;20421;-73
2021/04/28 04:43:50;;;;;;;1.61;1.40;;;;;;;1.08;70.67;98150.50;1991497;81;20364;-74
2021/04/28 04:46:52;;;;;;;2.45;1.51;;;;;;;1.16;70.47;98146.34;1990331;78;21499;-74
2021/04/28 04:49:53;;;;;;;2.95;1.27;;;;;;;1.18;70.52;98147.22;1991887;81;20431;-74
2021/04/28 04:52:55;;;;;;;1.91;1.36;;;;;;;1.23;70.67;98153.25;1990990;81;20344;-74
2021/04/28 04:55:57;;;;;;;2.19;1.20;;;;;;;1.30;70.69;98147.38;1991753;81;20355;-74
2021/04/28 04:58:59;;;;;;;3.97;1.01;;;;;;;1.39;71.38;98138.94;1991671;81;20364;-73
2021/04/28 05:02:01;;;;;;;2.35;1.20;;;;;;;1.47;71.55;98145.03;1990276;79;23412;-73
2021/04/28 05:05:06;;;;;;;1.86;1.09;;;;;;;1.49;71.57;98138.22;1994397;81;20302;-74
2021/04/28 05:08:08;;;;;;;1.91;0.93;;;;;;;1.57;71.46;98139.16;1991171;81;20383;-73
2021/04/28 05:11:14;;;;;;;4.68;1.40;;;;;;;1.62;71.57;98141.78;1992202;81;20764;-74
2021/04/28 05:14:15;;;;;;;4.68;1.58;;;;;;;1.69;71.27;98146.09;1991092;81;20307;-74
2021/04/28 05:17:21;;;;;;;2.83;1.21;;;;;;;1.83;71.07;98151.38;1990380;79;20348;-74
2021/04/28 05:20:23;;;;;;;1.40;1.30;;;;;;;1.94;70.34;98153.19;1990911;81;20338;-74
2021/04/28 05:23:24;;;;;;;2.86;1.20;;;;;;;2.11;69.72;98151.63;1991286;81;20358;-73
2021/04/28 05:26:27;;;;;;;5.26;1.38;;;;;;;2.24;69.33;98154.31;1990550;81;20318;-74
2021/04/28 05:29:30;;;;;;;2.74;1.17;;;;;;;2.37;69.30;98156.13;1991372;81;20340;-75
2021/04/28 05:32:31;;;;;;;1.20;1.10;;;;;;;2.55;69.26;98146.03;1990229;79;21313;-73
2021/04/28 05:35:33;;;;;;;1.19;1.09;;;;;;;2.80;69.00;98143.63;1990636;81;20942;-74
2021/04/28 05:38:36;;;;;;;2.46;1.20;;;;;;;3.01;68.49;98149.72;1991389;81;20314;-72
2021/04/28 05:41:39;;;;;;;1.35;1.00;;;;;;;3.64;66.94;98150.88;1990893;81;20386;-73
2021/04/28 05:44:42;;;;;;;1.00;0.90;;;;;;;4.43;64.48;98156.97;1991358;81;20367;-73
2021/04/28 05:47:44;;;;;;;2.72;1.14;;;;;;;4.86;62.98;98155.22;1989378;78;58677;-73
2021/04/28 05:50:46;;;;;;;1.33;1.20;;;;;;;5.19;61.72;98150.84;1991053;81;20342;-73
2021/04/28 05:53:47;;;;;;;2.04;1.20;;;;;;;5.49;61.22;98158.47;1991617;81;20220;-73
2021/04/28 05:56:49;;;;;;;2.66;1.20;;;;;;;5.82;60.05;98148.88;1990683;81;20171;-73
2021/04/28 05:59:51;;;;;;;3.76;1.20;;;;;;;6.19;58.84;98149.53;1990972;81;20187;-74
2021/04/28 06:02:52;;;;;;;4.05;1.39;;;;;;;6.44;57.05;98142.44;1989100;79;21090;-74
2021/04/28 06:05:54;;;;;;;2.41;1.26;;;;;;;6.86;56.59;98139.50;1991362;81;20197;-74
2021/04/28 06:08:56;;;;;;;7.25;1.86;;;;;;;7.30;54.76;98133.00;1990658;81;20273;-74
2021/04/28 06:11:57;;;;;;;3.14;1.38;;;;;;;7.73;54.10;98129.91;1991227;81;20175;-74
2021/04/28 06:14:59;;;;;;;3.00;1.86;;;;;;;8.12;52.70;98133.66;1991259;81;20566;-74
2021/04/28 06:18:01;;;;;;;4.05;1.35;;;;;;;8.50;50.46;98127.06;1985287;79;29862;-73
2021/04/28 06:21:04;;;;;;;3.71;1.48;;;;;;;9.08;49.49;98130.31;1987028;81;20221;-74
2021/04/28 06:24:08;;;;;;;7.68;1.66;;;;;;;9.66;48.30;98128.31;1985875;81;20311;-73
2021/04/28 06:27:09;;;;;;;5.29;1.95;;;;;;;10.27;47.26;98120.06;1986565;81;21051;-75
2021/04/28 06:30:12;;;;;;;3.31;1.76;;;;;;;10.82;45.78;98121.28;1986447;81;20975;-75
2021/04/28 06:33:13;;;;;;;6.22;2.10;;;;;;;11.17;44.65;98120.34;1991183;81;20629;-73
2021/04/28 06:36:15;;;;;;;8.59;2.76;;;;;;;11.42;43.83;98115.31;1991398;81;20248;-73
2021/04/28 06:39:17;;;;;;;4.14;2.24;;;;;;;11.65;42.93;98108.59;1991906;81;20168;-74
2021/04/28 06:42:19;;;;;;;7.50;2.34;;;;;;;11.94;42.39;98108.63;1991623;81;20811;-76
2021/04/28 06:45:20;;;;;;;7.68;2.46;;;;;;;12.20;41.81;98106.94;1991974;78;20202;-72
2021/04/28 06:48:24;;;;;;;6.64;2.51;;;;;;;12.55;41.48;98117.09;1991151;81;20195;-73
2021/04/28 06:51:26;;;;;;;4.29;2.66;;;;;;;12.92;40.10;98111.47;1991749;81;20225;-72
2021/04/28 06:54:28;;;;;;;10.27;2.14;;;;;;;13.27;39.62;98107.69;1991865;81;20653;-74
2021/04/28 06:57:30;;;;;;;8.44;3.03;;;;;;;13.54;38.85;98100.63;1991491;81;20554;-73
2021/04/28 07:00:31;;;;;;;4.56;2.36;;;;;;;13.88;37.36;98097.59;1991147;79;20191;-73
2021/04/28 07:03:33;;;;;;;2.92;2.34;;;;;;;14.07;36.83;98089.06;1991972;81;20240;-73
2021/04/28 07:06:37;;;;;;;4.46;2.34;;;;;;;14.38;35.98;98091.28;1991718;81;20179;-72
2021/04/28 07:09:38;;;;;;;4.54;2.67;;;;;;;14.55;35.57;98085.41;1991931;81;20625;-73
2021/04/28 07:12:40;;;;;;;2.78;2.49;;;;;;;14.72;34.73;98089.03;1992465;81;20201;-74
2021/04/28 07:15:41;;;;;;;9.75;3.21;;;;;;;14.96;34.24;98083.66;1990897;78;21480;-75
2021/04/28 07:18:43;;;;;;;5.82;2.76;;;;;;;15.16;33.79;98088.03;1991326;81;20265;-74
2021/04/28 07:21:45;;;;;;;4.24;2.42;;;;;;;15.17;33.84;98087.94;1991719;81;20167;-74
2021/04/28 07:24:48;;;;;;;3.14;2.54;;;;;;;15.37;33.63;98084.44;1992044;81;20281;-74
2021/04/28 07:27:50;;;;;;;8.45;2.55;;;;;;;15.42;33.40;98083.31;1991813;81;20581;-74
2021/04/28 07:30:51;;;;;;;3.80;3.06;;;;;;;15.63;33.02;98088.56;1991138;78;23315;-74
2021/04/28 07:33:53;;;;;;;4.47;2.70;;;;;;;15.80;33.28;98086.00;1995664;81;20194;-73
2021/04/28 07:36:55;;;;;;;3.72;2.65;;;;;;;16.06;32.60;98086.56;1992213;81;20189;-73
2021/04/28 07:39:57;;;;;;;7.70;2.91;;;;;;;16.37;32.51;98089.41;1995046;81;20171;-74
2021/04/28 07:42:59;;;;;;;4.41;2.54;;;;;;;16.57;31.63;98091.88;1991782;81;20851;-74
2021/04/28 07:46:00;;;;;;;4.06;2.46;;;;;;;16.81;31.72;98095.09;1991040;79;24682;-74
2021/04/28 07:49:04;;;;;;;5.51;2.67;;;;;;;16.96;31.23;98090.00;1991777;81;20179;-73
2021/04/28 07:52:06;;;;;;;4.88;2.74;;;;;;;17.08;31.58;98081.50;1992228;81;20213;-73
2021/04/28 07:55:11;;;;;;;3.14;2.84;;;;;;;17.28;30.28;98080.47;1991146;81;20830;-74
2021/04/28 07:58:15;;;;;;;6.55;3.20;;;;;;;17.43;30.51;98079.66;1992093;81;20257;-71
2021/04/28 08:01:16;;;;;;;4.46;2.89;;;;;;;17.69;30.38;98091.41;1988607;79;21150;-73
2021/04/28 08:04:20;;;;;;;5.61;3.10;;;;;;;17.86;29.35;98085.25;1987883;81;20201;-74
2021/04/28 08:07:22;;;;;;;7.44;3.31;;;;;;;18.00;29.73;98075.69;1990459;81;20864;-75
2021/04/28 08:10:24;;;;;;;4.79;3.00;;;;;;;18.17;29.58;98081.78;1990954;81;20167;-75
2021/04/28 08:13:26;;;;;;;3.94;3.26;;;;;;;18.39;29.91;98084.88;1992095;81;20201;-75
2021/04/28 08:16:32;;;;;;;6.03;2.86;;;;;;;18.47;29.32;98081.81;1989949;79;24169;-75
2021/04/28 08:19:34;;;;;;;4.14;3.01;;;;;;;18.84;29.20;98091.06;1992304;81;20344;-75
2021/04/28 08:22:36;;;;;;;3.99;3.17;;;;;;;18.99;28.60;98083.13;1991521;81;20200;-75
2021/04/28 08:25:38;;;;;;;5.51;3.16;;;;;;;19.15;28.08;98082.19;1994952;81;20321;-74
2021/04/28 08:28:42;;;;;;;5.72;3.13;;;;;;;19.31;28.14;98080.34;1991598;81;20202;-74
2021/04/28 08:31:44;;;;;;;5.32;3.61;;;;;;;19.21;27.18;98080.06;1990215;79;20588;-74
2021/04/28 08:34:46;;;;;;;5.60;3.60;;;;;;;19.34;25.72;98088.03;1992349;81;20219;-74
2021/04/28 08:37:49;;;;;;;4.00;3.56;;;;;;;19.22;26.21;98087.03;1991109;81;20193;-74
2021/04/28 08:40:51;;;;;;;9.38;4.19;;;;;;;19.27;26.49;98079.69;1991519;81;20648;-74
2021/04/28 08:43:52;;;;;;;7.64;3.72;;;;;;;19.41;27.51;98091.16;1991698;81;20175;-75
2021/04/28 08:46:54;;;;;;;6.89;4.54;;;;;;;19.53;26.45;98085.13;1990843;81;20224;-74
2021/04/28 08:49:56;;;;;;;8.93;4.51;;;;;;;19.28;25.34;98078.75;1991564;81;20255;-74
2021/04/28 08:52:59;;;;;;;6.21;4.44;;;;;;;19.40;25.69;98090.31;1991178;81;20163;-75
2021/04/28 08:56:08;;;;;;;7.71;4.34;;;;;;;19.21;25.81;98073.94;1992092;81;20183;-77
2021/04/28 08:59:09;;;;;;;;;;;;;;;19.41;26.00;98072.75;1992989;81;20219;-75
2021/04/28 09:02:29;;;;;;;6.28;3.95;;;;;;;19.80;26.85;98070.28;1991384;79;20223;-76
2021/04/28 09:05:33;;;;;;;10.36;4.11;;;;;;;20.11;27.13;98066.56;1991023;81;20226;-76
2021/04/28 09:08:34;;;;;;;10.11;4.57;;;;;;;20.33;26.75;98073.91;1992283;81;20214;-76
2021/04/28 09:11:38;;;;;;;7.74;3.94;;;;;;;20.56;26.42;98080.34;1991237;81;20767;-76
2021/04/28 09:14:45;;;;;;;10.80;4.47;;;;;;;20.61;25.69;98070.34;1991178;81;20191;-73
2021/04/28 09:17:53;;;;;;;8.65;4.65;;;;;;;20.91;26.56;98075.38;1990515;78;20208;-75
2021/04/28 09:20:57;;;;;;;13.69;4.13;;;;;;;20.99;25.38;98064.28;1990908;81;20327;-74
2021/04/28 09:24:19;;;;;;;7.04;4.39;;;;;;;21.21;25.80;98076.88;1990949;81;20280;-73
2021/04/28 09:27:30;;;;;;;8.71;4.40;;;;;;;21.26;24.61;98069.50;1990801;81;20248;-73
2021/04/28 09:30:32;;;;;;;9.79;4.28;;;;;;;21.15;25.03;98072.84;1990460;79;20867;-73
2021/04/28 09:33:48;;;;;;;9.41;4.34;;;;;;;21.33;25.60;98063.69;1990867;81;20226;-76
2021/04/28 09:36:59;;;;;;;8.96;4.68;;;;;;;21.59;24.96;98066.31;1991493;81;20198;-77
2021/04/28 09:40:02;;;;;;;8.31;4.96;;;;;;;21.93;24.80;98062.97;1991137;81;20179;-77
2021/04/28 09:43:04;;;;;;;6.30;4.35;;;;;;;22.03;24.14;98055.22;1991114;81;20210;-77
2021/04/28 09:46:11;;;;;;;8.64;4.97;;;;;;;22.11;24.37;98050.25;1990694;78;22575;-77
2021/04/28 09:49:13;;;;;;;8.39;4.29;;;;;;;22.16;24.09;98045.47;1991875;81;20241;-77
2021/04/28 09:52:17;;;;;;;9.09;4.24;;;;;;;22.36;24.55;98046.66;1991609;81;20228;-77
2021/04/28 09:55:19;;;;;;;11.27;4.64;;;;;;;22.57;25.25;98033.63;1991926;81;20703;-77
2021/04/28 09:58:47;;;;;;;12.64;4.51;;;;;;;22.88;24.56;98033.03;1991596;81;20598;-77
2021/04/28 10:01:57;;;;;;;7.68;5.13;;;;;;;22.66;23.45;98029.47;1990549;78;20203;-77
2021/04/28 10:05:20;;;;;;;10.40;5.25;;;;;;;22.60;23.61;98028.94;1991540;81;20932;-77
2021/04/28 10:08:30;;;;;;;10.06;5.04;;;;;;;22.67;22.84;98021.41;1992258;81;20192;-76
2021/04/28 10:11:32;;;;;;;7.09;4.34;;;;;;;22.61;22.70;98022.69;1993209;81;20171;-75
2021/04/28 10:14:36;;;;;;;7.28;4.38;;;;;;;22.81;24.24;98017.72;1991972;81;20206;-77
2021/04/28 10:17:40;;;;;;;10.52;5.16;;;;;;;22.89;23.28;98024.13;1990556;78;20527;-75
2021/04/28 10:20:44;;;;;;;11.18;4.40;;;;;;;23.25;23.88;98013.47;1991557;81;20559;-75
2021/04/28 10:23:47;;;;;;;6.93;4.61;;;;;;;23.22;22.30;98017.19;1990693;81;20224;-75
2021/04/28 10:26:49;;;;;;;4.99;4.18;;;;;;;23.45;20.60;98004.78;1991355;81;20183;-76
2021/04/28 10:29:52;;;;;;;4.55;3.67;;;;;;;23.41;21.70;98000.69;1991203;81;20183;-75
2021/04/28 10:32:56;;;;;;;14.96;4.56;;;;;;;23.70;21.40;97993.13;1990048;79;20237;-75
2021/04/28 10:35:59;;;;;;;4.75;3.58;;;;;;;23.36;18.83;97992.28;1991376;81;20650;-76
2021/04/28 10:39:01;;;;;;;7.34;3.55;;;;;;;23.33;20.69;97990.69;1991256;81;20179;-76
2021/04/28 10:42:05;;;;;;;6.49;3.33;;;;;;;23.59;21.02;97996.63;1991030;81;20771;-75
2021/04/28 10:45:23;;;;;;;8.60;4.57;;;;;;;23.87;19.76;97986.44;1990669;81;20187;-76
2021/04/28 10:48:39;;;;;;;6.46;4.43;;;;;;;23.59;18.69;97979.88;1991227;81;20243;-76
2021/04/28 10:51:45;;;;;;;5.54;3.96;;;;;;;23.57;18.69;97973.88;1991261;81;20658;-77
2021/04/28 10:54:46;;;;;;;6.69;3.99;;;;;;;23.82;20.46;97973.56;1990414;81;20649;-76
2021/04/28 10:57:48;;;;;;;5.96;3.59;;;;;;;24.14;21.24;97970.94;1990993;81;20672;-76
2021/04/28 11:01:10;;;;;;;6.88;3.45;;;;;;;23.99;18.67;97967.72;1990389;78;20429;-76
2021/04/28 11:04:13;;;;;;;6.79;4.20;;;;;;;23.82;19.42;97965.63;1992264;81;20183;-75
2021/04/28 11:07:42;;;;;;;10.01;3.63;;;;;;;24.07;19.58;97967.13;1992238;81;20199;-73
2021/04/28 11:10:44;;;;;;;5.34;2.92;;;;;;;24.04;19.53;97956.75;1992342;81;20550;-73
2021/04/28 11:14:08;;;;;;;5.36;2.97;;;;;;;24.29;20.00;97947.66;1992196;81;20838;-73
2021/04/28 11:17:16;;;;;;;5.57;3.40;;;;;;;24.68;19.96;97954.06;1990756;79;20184;-72
2021/04/28 11:20:20;;;;;;;4.22;3.28;;;;;;;24.71;19.31;97951.97;1992347;81;20192;-72
2021/04/28 11:23:22;;;;;;;4.18;3.85;;;;;;;25.00;19.69;97944.22;1991722;81;20856;-72
2021/04/28 11:26:31;;;;;;;4.71;3.83;;;;;;;25.05;19.50;97945.63;1992795;81;20232;-72
2021/04/28 11:29:56;;;;;;;3.74;2.80;;;;;;;25.08;18.98;97940.03;1992053;81;20175;-72
2021/04/28 11:33:10;;;;;;;5.26;3.81;;;;;;;24.98;19.22;97939.97;1991729;79;21010;-72
2021/04/28 11:36:15;;;;;;;5.61;3.06;;;;;;;24.82;17.05;97937.81;1991953;81;20669;-72
2021/04/28 11:39:51;;;;;;;3.85;3.50;;;;;;;24.54;17.64;97943.75;1992331;81;20299;-73
2021/04/28 11:42:53;;;;;;;5.21;3.28;;;;;;;24.74;18.94;97934.09;1976723;81;20189;-73
2021/04/28 11:46:02;;;;;;;5.86;3.17;;;;;;;24.89;18.82;97940.75;1990624;79;45496;-72
2021/04/28 11:49:04;;;;;;;3.20;2.89;;;;;;;24.84;17.82;97937.66;1991712;81;20948;-74
2021/04/28 11:52:06;;;;;;;4.01;2.58;;;;;;;24.63;18.05;97929.72;1993607;81;20226;-74
2021/04/28 11:55:08;;;;;;;3.49;2.53;;;;;;;24.82;18.98;97934.31;1991290;81;20622;-73
2021/04/28 11:58:24;;;;;;;3.60;2.60;;;;;;;24.95;19.14;97929.59;1992077;81;20163;-73
2021/04/28 12:01:28;;;;;;;3.69;2.30;;;;;;;24.81;18.86;97914.88;1990729;79;23759;-74
2021/04/28 12:04:35;;;;;;;2.28;2.05;;;;;;;24.78;18.78;97919.63;1991708;81;20179;-74
2021/04/28 12:07:45;;;;;;;3.19;2.30;;;;;;;24.87;18.35;97918.81;1991233;81;20243;-76
2021/04/28 12:10:54;;;;;;;6.60;2.44;;;;;;;24.97;18.52;97917.88;1992243;81;20201;-74
2021/04/28 12:13:56;;;;;;;11.65;2.61;;;;;;;24.88;18.14;97923.16;1991835;81;20237;-74
2021/04/28 12:16:58;;;;;;;3.75;2.10;;;;;;;24.51;17.12;97920.13;1991847;81;20637;-74
2021/04/28 12:20:14;;;;;;;4.20;1.95;;;;;;;24.01;18.31;97922.53;1991946;81;20191;-75
2021/04/28 12:23:22;;;;;;;4.78;2.41;;;;;;;23.97;18.91;97908.69;1991872;81;20296;-74
2021/04/28 12:26:23;;;;;;;5.05;2.28;;;;;;;24.10;18.22;97909.34;1991959;81;20246;-76
2021/04/28 12:29:25;;;;;;;5.34;2.28;;;;;;;24.00;18.32;97902.28;1991749;81;20537;-74
2021/04/28 12:32:28;;;;;;;7.69;3.10;;;;;;;24.20;19.99;97903.28;1991336;78;20175;-74
2021/04/28 12:35:32;;;;;;;4.09;3.03;;;;;;;24.54;19.13;97911.91;1991850;81;20198;-74
2021/04/28 12:38:40;;;;;;;3.58;2.81;;;;;;;24.55;19.14;97892.38;1992096;81;20314;-76
2021/04/28 12:41:43;;;;;;;7.74;3.03;;;;;;;24.51;19.79;97899.75;1991754;81;20187;-76
2021/04/28 12:44:47;;;;;;;8.73;3.19;;;;;;;24.33;19.40;97906.63;1992066;81;20186;-74
2021/04/28 12:47:49;;;;;;;4.11;3.04;;;;;;;23.89;19.70;97900.53;1991155;79;21371;-74
2021/04/28 12:50:51;;;;;;;4.88;3.21;;;;;;;23.66;20.19;97893.59;1991377;81;20300;-75
2021/04/28 12:53:53;;;;;;;4.72;3.08;;;;;;;23.48;19.73;97893.25;1991249;81;20233;-73
2021/04/28 12:56:57;;;;;;;6.50;2.99;;;;;;;23.57;20.60;97889.06;1991663;81;20191;-75
2021/04/28 13:00:08;;;;;;;5.25;3.89;;;;;;;23.68;20.67;97892.50;1991500;81;20305;-75
2021/04/28 13:03:13;;;;;;;7.01;3.79;;;;;;;23.63;20.11;97897.34;1987546;79;26559;-74
2021/04/28 13:06:23;;;;;;;6.85;4.05;;;;;;;23.45;21.00;97889.06;1986186;81;20723;-72
2021/04/28 13:09:29;;;;;;;6.85;4.04;;;;;;;23.30;20.92;97877.03;1986698;81;20598;-73
2021/04/28 13:12:39;;;;;;;3.14;2.69;;;;;;;23.39;21.99;97884.25;1986599;81;20650;-73
2021/04/28 13:15:41;;;;;;;5.94;2.24;;;;;;;23.57;22.65;97886.41;1987361;79;20962;-73
2021/04/28 13:18:51;;;;;;;4.05;2.19;;;;;;;23.62;20.96;97893.03;1991505;81;20719;-72
2021/04/28 13:21:55;;;;;;;6.50;1.76;;;;;;;23.18;21.17;97886.00;1991197;81;20722;-73
2021/04/28 13:24:57;;;;;;;4.07;2.00;;;;;;;22.74;21.63;97900.88;1991098;81;20198;-73
2021/04/28 13:28:48;;;;;;;4.59;2.00;;;;;;;22.42;21.83;97884.84;1991666;81;20692;-74
2021/04/28 13:31:50;;;;;;;7.46;1.80;;;;;;;22.17;21.90;97893.81;1986526;79;22213;-73
2021/04/28 13:34:52;;;;;;;7.18;2.00;;;;;;;21.93;22.26;97896.47;1990940;81;20984;-73
2021/04/28 13:37:53;;;;;;;5.06;2.01;;;;;;;21.74;22.06;97895.28;1991439;81;20806;-73
2021/04/28 13:40:55;;;;;;;5.46;2.26;;;;;;;21.47;22.13;97896.34;1991949;81;20236;-73
2021/04/28 13:43:57;;;;;;;8.68;2.06;;;;;;;21.35;22.27;97892.78;1990940;81;20199;-73
2021/04/28 13:47:00;;;;;;;7.76;2.66;;;;;;;21.23;23.15;97892.81;1986680;81;20616;-73
2021/04/28 13:50:03;;;;;;;4.56;2.19;;;;;;;21.22;22.77;97893.75;1991623;81;20187;-74
2021/04/28 13:53:05;;;;;;;3.44;1.91;;;;;;;21.18;23.00;97887.84;1992314;81;20195;-73
2021/04/28 13:56:07;;;;;;;3.75;1.60;;;;;;;21.12;23.33;97893.56;1992369;81;20179;-74
2021/04/28 13:59:09;;;;;;;5.85;2.22;;;;;;;21.06;22.93;97892.22;1991705;81;20261;-74
2021/04/28 14:02:11;;;;;;;8.49;2.55;;;;;;;20.81;22.39;97900.16;1990476;81;23811;-73
2021/04/28 14:05:15;;;;;;;3.85;2.38;;;;;;;20.74;22.71;97891.00;1991619;81;20187;-74
2021/04/28 14:08:18;;;;;;;3.39;1.73;;;;;;;20.69;23.58;97893.94;1990989;81;20226;-75
2021/04/28 14:11:21;;;;;;;5.55;2.06;;;;;;;20.61;23.54;97892.78;1992081;81;20187;-75
2021/04/28 14:14:23;;;;;;;4.57;1.16;;;;;;;20.39;23.46;97888.09;1992095;81;20236;-74
2021/04/28 14:17:25;;;;;;;1.80;1.05;;;;;;;20.35;24.14;97900.66;1990776;79;22570;-75
2021/04/28 14:20:28;;;;;;;2.76;0.90;;;;;;;20.19;24.26;97895.56;1991564;81;20801;-74
2021/04/28 14:23:29;;;;;;;3.21;0.91;;;;;;;20.18;24.95;97893.88;1991594;81;20187;-74
2021/04/28 14:26:31;;;;;;;1.83;0.80;;;;;;;20.12;25.52;97896.94;1992528;81;20202;-74
2021/04/28 14:29:33;;;;;;;11.06;1.15;;;;;;;20.09;25.43;97896.28;1991781;81;20561;-75